createdAt,value
2022-09-15T00:02:28.862Z,2.72
2022-09-15T00:04:56.472Z,2.67
2022-09-15T00:07:27.688Z,2.33
2022-09-15T00:09:55.093Z,2.38
2022-09-15T00:12:22.697Z,3.40
2022-09-15T00:14:50.143Z,2.53
2022-09-15T00:17:17.543Z,2.22
2022-09-15T00:19:45.233Z,2.17
2022-09-15T00:22:12.698Z,3.10
2022-09-15T00:24:41.654Z,2.55
2022-09-15T00:27:12.229Z,2.42
2022-09-15T00:29:39.591Z,1.98
2022-09-15T00:32:06.904Z,1.85
2022-09-15T00:34:35.345Z,2.45
2022-09-15T00:37:02.969Z,2.40
2022-09-15T00:39:34.989Z,2.38
2022-09-15T00:42:05.558Z,2.08
2022-09-15T00:44:54.891Z,2.53
2022-09-15T00:47:26.985Z,2.35
2022-09-15T00:49:59.336Z,2.53
2022-09-15T00:52:32.686Z,2.70
2022-09-15T00:55:06.529Z,2.15
2022-09-15T00:57:59.015Z,2.00
2022-09-15T01:00:30.389Z,2.15
2022-09-15T01:03:01.154Z,2.95
2022-09-15T01:05:33.970Z,1.90
2022-09-15T01:10:36.045Z,2.03
2022-09-15T01:13:06.789Z,1.92
2022-09-15T01:15:45.975Z,1.73
2022-09-15T01:18:22.972Z,1.98
2022-09-15T01:21:04.924Z,1.73
2022-09-15T01:23:53.516Z,2.70
2022-09-15T01:26:34.350Z,2.30
2022-09-15T01:29:23.680Z,1.90
2022-09-15T01:32:13.617Z,1.98
2022-09-15T01:34:49.167Z,1.80
2022-09-15T01:37:18.728Z,3.08
2022-09-15T01:39:47.503Z,1.80
2022-09-15T01:42:19.250Z,1.30
2022-09-15T01:44:53.192Z,1.98
2022-09-15T01:47:23.724Z,2.80
2022-09-15T01:49:55.756Z,2.83
2022-09-15T01:52:28.053Z,1.70
2022-09-15T01:55:01.270Z,2.85
2022-09-15T01:57:28.916Z,1.70
2022-09-15T01:59:57.970Z,2.50
2022-09-15T02:02:44.729Z,2.10
2022-09-15T02:05:20.463Z,1.63
2022-09-15T02:07:57.702Z,1.30
2022-09-15T02:10:28.079Z,1.88
2022-09-15T02:12:59.381Z,2.13
2022-09-15T02:15:35.844Z,1.88
2022-09-15T02:18:04.875Z,1.70
2022-09-15T02:20:43.551Z,2.10
2022-09-15T02:23:16.779Z,2.38
2022-09-15T02:25:50.707Z,2.08
2022-09-15T02:28:19.230Z,1.75
2022-09-15T02:30:48.147Z,1.60
2022-09-15T02:33:17.738Z,1.70
2022-09-15T02:35:45.238Z,2.58
2022-09-15T02:38:15.327Z,1.52
2022-09-15T02:40:43.939Z,3.35
2022-09-15T02:43:13.027Z,1.42
2022-09-15T02:45:43.336Z,2.03
2022-09-15T02:48:10.856Z,2.15
2022-09-15T02:50:39.079Z,1.98
2022-09-15T02:53:06.699Z,2.15
2022-09-15T02:55:34.201Z,1.73
2022-09-15T02:58:02.788Z,2.28
2022-09-15T03:00:31.677Z,1.95
2022-09-15T03:03:02.999Z,1.63
2022-09-15T03:05:31.318Z,1.80
2022-09-15T03:07:59.941Z,1.75
2022-09-15T03:10:30.298Z,1.90
2022-09-15T03:12:57.854Z,2.25
2022-09-15T03:15:26.415Z,2.20
2022-09-15T03:18:00.230Z,1.80
2022-09-15T03:20:31.730Z,2.00
2022-09-15T03:23:00.070Z,2.28
2022-09-15T03:25:28.896Z,2.67
2022-09-15T03:27:56.358Z,1.38
2022-09-15T03:30:23.899Z,1.85
2022-09-15T03:32:51.344Z,1.42
2022-09-15T03:35:18.859Z,1.60
2022-09-15T03:37:47.903Z,1.63
2022-09-15T03:40:15.455Z,2.15
2022-09-15T03:42:43.243Z,2.47
2022-09-15T03:45:13.421Z,2.60
2022-09-15T03:47:40.969Z,1.55
2022-09-15T03:50:10.884Z,2.30
2022-09-15T03:52:39.563Z,2.10
2022-09-15T03:55:07.290Z,1.60
2022-09-15T03:57:41.700Z,1.75
2022-09-15T04:00:11.065Z,1.55
2022-09-15T04:02:41.363Z,1.80
2022-09-15T04:05:12.029Z,1.92
2022-09-15T04:07:39.853Z,1.65
2022-09-15T04:10:08.434Z,3.53
2022-09-15T04:12:39.848Z,1.90
2022-09-15T04:15:09.582Z,1.70
2022-09-15T04:17:39.850Z,1.65
2022-09-15T04:20:07.545Z,2.70
2022-09-15T04:22:34.964Z,1.85
2022-09-15T04:25:02.413Z,2.10
2022-09-15T04:27:36.005Z,2.17
2022-09-15T04:30:03.451Z,2.92
2022-09-15T04:32:33.864Z,1.83
2022-09-15T04:35:02.819Z,2.15
2022-09-15T04:37:30.355Z,2.25
2022-09-15T04:39:58.154Z,2.25
2022-09-15T04:42:25.962Z,2.00
2022-09-15T04:44:53.428Z,2.20
2022-09-15T04:47:21.205Z,1.67
2022-09-15T04:49:48.689Z,1.30
2022-09-15T04:52:18.634Z,2.83
2022-09-15T04:54:46.309Z,1.83
2022-09-15T04:57:15.511Z,2.00
2022-09-15T04:59:42.954Z,2.28
2022-09-15T05:02:10.416Z,2.22
2022-09-15T05:04:37.838Z,2.00
2022-09-15T05:07:05.351Z,1.70
2022-09-15T05:09:35.473Z,2.13
2022-09-15T05:12:02.981Z,2.47
2022-09-15T05:14:32.497Z,2.03
2022-09-15T05:17:02.427Z,2.10
2022-09-15T05:19:31.385Z,2.03
2022-09-15T05:21:58.813Z,3.55
2022-09-15T05:27:09.942Z,2.00
2022-09-15T05:29:37.384Z,1.88
2022-09-15T05:32:04.903Z,2.10
2022-09-15T05:34:32.366Z,2.80
2022-09-15T05:37:05.660Z,3.38
2022-09-15T05:39:36.870Z,3.35
2022-09-15T05:42:04.486Z,3.03
2022-09-15T05:44:32.561Z,2.08
2022-09-15T05:47:00.103Z,2.08
2022-09-15T05:49:29.246Z,2.65
2022-09-15T05:51:56.795Z,2.13
2022-09-15T05:54:29.516Z,2.22
2022-09-15T05:56:58.801Z,2.67
2022-09-15T05:59:29.229Z,2.85
2022-09-15T06:01:58.051Z,2.17
2022-09-15T06:04:27.857Z,2.28
2022-09-15T06:07:00.529Z,2.35
2022-09-15T06:09:29.607Z,1.83
2022-09-15T06:11:57.143Z,2.05
2022-09-15T06:14:25.974Z,2.38
2022-09-15T06:16:53.465Z,2.13
2022-09-15T06:19:22.570Z,2.67
2022-09-15T06:21:51.683Z,2.78
2022-09-15T06:24:19.252Z,2.95
2022-09-15T06:26:52.099Z,2.38
2022-09-15T06:29:20.266Z,2.63
2022-09-15T06:31:47.746Z,2.33
2022-09-15T06:34:16.329Z,2.72
2022-09-15T06:36:49.668Z,2.28
2022-09-15T06:39:17.890Z,2.17
2022-09-15T06:42:01.650Z,2.33
2022-09-15T06:44:30.608Z,2.35
2022-09-15T06:46:58.071Z,1.80
2022-09-15T06:49:30.149Z,2.42
2022-09-15T06:52:04.014Z,2.00
2022-09-15T06:54:33.330Z,2.95
2022-09-15T06:57:00.840Z,2.00
2022-09-15T06:59:30.505Z,2.83
2022-09-15T07:02:04.120Z,2.25
2022-09-15T07:04:38.537Z,2.05
2022-09-15T07:07:06.085Z,2.05
2022-09-15T07:09:41.187Z,2.50
2022-09-15T07:12:15.686Z,2.45
2022-09-15T07:14:44.876Z,2.85
2022-09-15T07:17:18.040Z,2.45
2022-09-15T07:19:48.946Z,2.20
2022-09-15T07:22:16.365Z,2.83
2022-09-15T07:24:49.685Z,1.92
2022-09-15T07:27:17.186Z,2.45
2022-09-15T07:29:45.722Z,2.08
2022-09-15T07:32:13.198Z,2.78
2022-09-15T07:34:41.955Z,2.65
2022-09-15T07:37:11.010Z,2.90
2022-09-15T07:39:38.900Z,3.00
2022-09-15T07:42:06.485Z,2.25
2022-09-15T07:44:36.861Z,2.65
2022-09-15T07:47:04.289Z,2.30
2022-09-15T07:49:31.964Z,2.63
2022-09-15T07:51:59.479Z,2.22
2022-09-15T07:54:30.121Z,2.42
2022-09-15T07:56:57.555Z,2.28
2022-09-15T07:59:28.567Z,3.10
2022-09-15T08:01:57.360Z,2.40
2022-09-15T08:04:24.822Z,1.60
2022-09-15T08:06:55.970Z,1.70
2022-09-15T08:09:29.183Z,1.98
2022-09-15T08:11:56.582Z,2.30
2022-09-15T08:14:25.310Z,2.45
2022-09-15T08:16:52.864Z,1.90
2022-09-15T08:19:21.407Z,2.88
2022-09-15T08:21:48.861Z,2.83
2022-09-15T08:24:17.256Z,3.22
2022-09-15T08:26:45.909Z,2.55
2022-09-15T08:29:16.472Z,1.98
2022-09-15T08:31:45.525Z,2.38
2022-09-15T08:34:16.995Z,2.15
2022-09-15T08:36:47.348Z,2.60
2022-09-15T08:39:14.973Z,2.30
2022-09-15T08:41:47.554Z,1.98
2022-09-15T08:44:23.776Z,2.83
2022-09-15T08:46:51.245Z,2.92
2022-09-15T08:49:49.891Z,3.03
2022-09-15T08:52:21.740Z,2.95
2022-09-15T08:54:51.215Z,2.35
2022-09-15T08:57:22.895Z,2.40
2022-09-15T08:59:53.856Z,1.70
2022-09-15T09:02:24.393Z,2.05
2022-09-15T09:05:16.160Z,2.17
2022-09-15T09:08:03.700Z,2.42
2022-09-15T09:10:46.210Z,1.77
2022-09-15T09:13:40.069Z,2.35
2022-09-15T09:16:10.746Z,2.22
2022-09-15T09:18:53.401Z,2.38
2022-09-15T09:21:41.066Z,2.22
2022-09-15T09:24:22.376Z,1.65
2022-09-15T09:26:51.214Z,3.28
2022-09-15T09:29:22.545Z,1.77
2022-09-15T09:31:51.536Z,2.33
2022-09-15T09:34:30.894Z,2.35
2022-09-15T09:36:59.769Z,2.40
2022-09-15T09:39:28.875Z,1.83
2022-09-15T09:41:57.566Z,1.27
2022-09-15T09:44:32.334Z,2.47
2022-09-15T09:47:00.679Z,1.85
2022-09-15T09:49:30.181Z,1.80
2022-09-15T09:52:00.566Z,1.73
2022-09-15T09:54:32.149Z,2.45
2022-09-15T09:57:21.937Z,1.80
2022-09-15T09:59:56.412Z,1.88
2022-09-15T10:02:27.735Z,1.35
2022-09-15T10:04:57.903Z,2.15
2022-09-15T10:07:29.050Z,2.40
2022-09-15T10:09:58.441Z,2.97
2022-09-15T10:12:39.567Z,1.90
2022-09-15T10:15:10.209Z,2.28
2022-09-15T10:17:39.769Z,2.22
2022-09-15T10:20:22.440Z,1.70
2022-09-15T10:22:49.943Z,2.60
2022-09-15T10:25:20.335Z,2.15
2022-09-15T10:28:07.011Z,2.03
2022-09-15T10:30:34.451Z,1.65
2022-09-15T10:33:24.341Z,1.27
2022-09-15T10:35:52.081Z,2.10
2022-09-15T10:38:22.746Z,1.92
2022-09-15T10:40:57.190Z,1.65
2022-09-15T10:43:43.279Z,1.50
2022-09-15T10:46:16.739Z,1.52
2022-09-15T10:48:59.565Z,1.70
2022-09-15T10:51:37.004Z,1.50
2022-09-15T10:54:09.725Z,1.77
2022-09-15T10:56:55.016Z,3.20
2022-09-15T10:59:44.367Z,2.20
2022-09-15T11:02:41.109Z,1.80
2022-09-15T11:05:29.528Z,1.63
2022-09-15T11:08:04.040Z,1.77
2022-09-15T11:10:45.901Z,1.60
2022-09-15T11:13:18.940Z,1.63
2022-09-15T11:18:29.332Z,2.08
2022-09-15T11:21:18.911Z,2.25
2022-09-15T11:23:49.065Z,1.33
2022-09-15T11:26:32.066Z,2.15
2022-09-15T11:29:02.129Z,2.42
2022-09-15T11:31:50.138Z,2.97
2022-09-15T11:34:17.736Z,4.40
2022-09-15T11:36:54.448Z,1.80
2022-09-15T11:39:26.866Z,1.77
2022-09-15T11:42:05.535Z,2.17
2022-09-15T11:44:39.886Z,3.08
2022-09-15T11:47:22.574Z,2.05
2022-09-15T11:50:06.127Z,3.35
2022-09-15T11:52:54.679Z,5.43
2022-09-15T11:55:22.392Z,3.88
2022-09-15T11:57:56.785Z,5.72
2022-09-15T12:00:28.544Z,4.18
2022-09-15T12:03:07.037Z,2.63
2022-09-15T12:05:46.372Z,3.40
2022-09-15T12:08:17.471Z,2.80
2022-09-15T12:10:47.725Z,1.85
2022-09-15T12:13:19.018Z,2.85
2022-09-15T12:15:47.341Z,1.98
2022-09-15T12:18:38.939Z,1.95
2022-09-15T12:21:19.112Z,1.73
2022-09-15T12:23:48.755Z,2.67
2022-09-15T12:26:23.719Z,2.08
2022-09-15T12:28:55.413Z,1.45
2022-09-15T12:31:30.694Z,1.77
2022-09-15T12:34:03.774Z,1.55
2022-09-15T12:39:02.148Z,1.50
2022-09-15T12:41:36.145Z,1.67
2022-09-15T12:44:06.381Z,1.70
2022-09-15T12:46:36.181Z,1.58
2022-09-15T12:49:04.261Z,2.33
2022-09-15T12:51:31.861Z,1.13
2022-09-15T12:54:01.595Z,1.30
2022-09-15T12:56:30.282Z,1.90
2022-09-15T12:59:06.625Z,1.40
2022-09-15T13:01:53.490Z,1.80
2022-09-15T13:04:39.697Z,1.15
2022-09-15T13:07:18.518Z,1.00
2022-09-15T13:09:47.648Z,1.00
2022-09-15T13:12:18.055Z,1.35
2022-09-15T13:14:48.980Z,1.08
2022-09-15T13:17:27.327Z,1.17
2022-09-15T13:19:57.216Z,1.40
2022-09-15T13:22:29.935Z,1.95
2022-09-15T13:25:18.511Z,0.82
2022-09-15T13:27:48.952Z,1.35
2022-09-15T13:30:16.701Z,0.77
2022-09-15T13:33:04.222Z,0.77
2022-09-15T13:35:53.156Z,1.08
2022-09-15T13:38:31.933Z,0.60
2022-09-15T13:41:18.962Z,1.85
2022-09-15T13:43:48.554Z,1.08
2022-09-15T13:46:33.404Z,0.90
2022-09-15T13:49:03.989Z,1.05
2022-09-15T13:51:32.237Z,0.98
2022-09-15T13:54:00.400Z,0.70
2022-09-15T13:56:32.386Z,0.60
2022-09-15T13:59:11.486Z,0.30
2022-09-15T14:01:43.007Z,0.88
2022-09-15T14:04:15.953Z,0.82
2022-09-15T14:06:50.921Z,0.75
2022-09-15T14:09:20.093Z,0.63
2022-09-15T14:11:54.516Z,0.40
2022-09-15T14:14:45.604Z,0.60
2022-09-15T14:17:21.211Z,0.60
2022-09-15T14:19:50.138Z,0.80
2022-09-15T14:22:28.936Z,0.70
2022-09-15T14:25:04.192Z,0.65
2022-09-15T14:27:34.245Z,0.50
2022-09-15T14:30:09.473Z,0.30
2022-09-15T14:32:42.421Z,0.60
2022-09-15T14:37:42.247Z,0.93
2022-09-15T14:40:22.431Z,1.05
2022-09-15T14:42:50.705Z,0.65
2022-09-15T14:48:09.431Z,0.50
2022-09-15T14:50:38.390Z,0.63
2022-09-15T14:53:11.164Z,0.50
2022-09-15T14:58:13.857Z,0.47
2022-09-15T15:00:50.963Z,0.70
2022-09-15T15:03:22.281Z,0.52
2022-09-15T15:06:02.813Z,0.57
2022-09-15T15:08:42.626Z,0.60
2022-09-15T15:11:13.545Z,0.82
2022-09-15T15:13:45.225Z,0.63
2022-09-15T15:16:24.145Z,0.50
2022-09-15T15:18:52.505Z,0.45
2022-09-15T15:21:42.048Z,0.60
2022-09-15T15:24:17.333Z,0.60
2022-09-15T15:26:46.002Z,0.70
2022-09-15T15:29:34.115Z,0.68
2022-09-15T15:32:12.482Z,0.70
2022-09-15T15:34:45.181Z,0.68
2022-09-15T15:37:19.794Z,1.33
2022-09-15T15:39:47.638Z,0.70
2022-09-15T15:42:17.813Z,0.98
2022-09-15T15:47:45.757Z,0.22
2022-09-15T15:50:19.722Z,0.95
2022-09-15T15:52:48.002Z,0.43
2022-09-15T15:55:22.266Z,0.90
2022-09-15T15:57:54.298Z,1.02
2022-09-15T16:00:40.262Z,0.60
2022-09-15T16:03:07.740Z,0.50
2022-09-15T16:05:38.505Z,0.32
2022-09-15T16:08:08.026Z,0.68
2022-09-15T16:10:40.687Z,0.70
2022-09-15T16:13:11.983Z,0.93
2022-09-15T16:15:40.934Z,0.93
2022-09-15T16:18:10.407Z,0.65
2022-09-15T16:20:43.179Z,0.50
2022-09-15T16:25:41.310Z,0.65
2022-09-15T16:28:08.742Z,1.23
2022-09-15T16:30:38.305Z,1.63
2022-09-15T16:33:11.657Z,1.13
2022-09-15T16:35:40.476Z,0.73
2022-09-15T16:38:13.615Z,1.25
2022-09-15T16:40:41.101Z,0.70
2022-09-15T16:43:17.326Z,0.75
2022-09-15T16:45:44.945Z,0.95
2022-09-15T16:48:14.846Z,0.65
2022-09-15T16:50:50.513Z,1.75
2022-09-15T16:53:31.771Z,0.65
2022-09-15T16:56:02.290Z,1.00
2022-09-15T16:58:29.776Z,1.05
2022-09-15T17:00:59.773Z,2.60
2022-09-15T17:03:31.132Z,0.95
2022-09-15T17:06:03.139Z,0.65
2022-09-15T17:08:32.157Z,0.60
2022-09-15T17:11:02.733Z,0.90
2022-09-15T17:13:31.986Z,0.88
2022-09-15T17:16:02.885Z,0.88
2022-09-15T17:18:34.131Z,0.80
2022-09-15T17:21:01.602Z,0.93
2022-09-15T17:23:35.061Z,0.77
2022-09-15T17:26:05.781Z,1.08
2022-09-15T17:28:34.486Z,0.98
2022-09-15T17:31:05.639Z,0.60
2022-09-15T17:33:34.988Z,0.57
2022-09-15T17:36:02.556Z,0.90
2022-09-15T17:38:30.002Z,0.90
2022-09-15T17:40:57.410Z,0.80
2022-09-15T17:43:25.975Z,1.15
2022-09-15T17:45:53.813Z,1.25
2022-09-15T17:48:21.404Z,0.90
2022-09-15T17:50:52.055Z,0.90
2022-09-15T17:53:23.354Z,1.25
2022-09-15T17:55:51.453Z,1.73
2022-09-15T17:58:20.949Z,0.60
2022-09-15T18:00:49.431Z,0.80
2022-09-15T18:03:20.146Z,0.80
2022-09-15T18:05:51.157Z,1.30
2022-09-15T18:08:21.697Z,1.60
2022-09-15T18:10:55.306Z,0.98
2022-09-15T18:13:24.308Z,0.70
2022-09-15T18:15:51.850Z,0.85
2022-09-15T18:18:20.758Z,1.05
2022-09-15T18:20:51.072Z,0.80
2022-09-15T18:23:24.574Z,1.15
2022-09-15T18:25:57.507Z,0.90
2022-09-15T18:28:26.043Z,0.98
2022-09-15T18:30:53.917Z,1.55
2022-09-15T18:33:22.455Z,1.10
2022-09-15T18:35:56.485Z,1.23
2022-09-15T18:38:24.170Z,0.90
2022-09-15T18:40:53.867Z,0.60
2022-09-15T18:43:21.692Z,1.20
2022-09-15T18:45:52.565Z,0.77
2022-09-15T18:48:22.743Z,0.75
2022-09-15T18:50:50.507Z,1.17
2022-09-15T18:53:17.803Z,0.73
2022-09-15T18:55:45.166Z,1.48
2022-09-15T18:58:12.599Z,0.77
2022-09-15T19:00:46.078Z,0.50
2022-09-15T19:03:16.054Z,0.95
2022-09-15T19:05:56.643Z,0.85
2022-09-15T19:08:24.021Z,0.73
2022-09-15T19:11:01.372Z,0.80
2022-09-15T19:13:30.041Z,1.23
2022-09-15T19:16:02.725Z,0.80
2022-09-15T19:18:30.297Z,1.17
2022-09-15T19:21:08.943Z,1.30
2022-09-15T19:23:37.643Z,1.65
2022-09-15T19:26:06.305Z,0.68
2022-09-15T19:28:36.899Z,1.13
2022-09-15T19:31:04.352Z,1.00
2022-09-15T19:33:34.626Z,0.93
2022-09-15T19:36:17.213Z,0.90
2022-09-15T19:38:52.660Z,0.70
2022-09-15T19:41:21.200Z,0.75
2022-09-15T19:43:48.622Z,0.55
2022-09-15T19:46:17.769Z,0.88
2022-09-15T19:48:50.114Z,0.90
2022-09-15T19:51:18.508Z,0.60
2022-09-15T19:53:46.465Z,1.17
2022-09-15T19:56:20.602Z,1.40
2022-09-15T19:58:48.012Z,0.90
2022-09-15T20:01:15.708Z,0.47
2022-09-15T20:03:43.152Z,2.00
2022-09-15T20:06:16.168Z,0.90
2022-09-15T20:08:49.127Z,0.57
2022-09-15T20:11:17.761Z,1.33
2022-09-15T20:13:45.776Z,0.55
2022-09-15T20:16:23.294Z,1.35
2022-09-15T20:18:53.938Z,0.70
2022-09-15T20:21:45.823Z,0.85
2022-09-15T20:24:10.700Z,0.60
2022-09-15T20:26:39.226Z,0.50
2022-09-15T20:29:06.743Z,0.60
2022-09-15T20:31:37.601Z,0.98
2022-09-15T20:34:07.265Z,0.60
2022-09-15T20:36:36.672Z,0.35
2022-09-15T20:39:05.538Z,0.60
2022-09-15T20:41:37.806Z,0.77
2022-09-15T23:25:26.818Z,2.30
2022-09-15T23:28:07.144Z,1.67
